»·PEaware :: N286WF KLAS-KVCV

N286WF :: KLAS-KVCV

FLIGHT INFORMATION

Flight Status: Arrived
Operator: Privately registered:
United States
More flights under this callsign
Pilot: Frank W. (16848)
Aircraft: Unknown
(P28U)
More flights by this aircraft type
Origin: KLAS McCarran Intl
United States
Destination: KVCV Socal Logistics
United States
More flights between these airports :: More routes between these airports
Route: +
File this flight plan on PilotEdge
Remarks:
Altitude:
(Current/Filed)
6,500ft
Speed:
(Current/Filed)
0kts
Departed: 14-Jul-19 03:24 PM
Arrived: 14-Jul-19 04:26 PM
Distance/Time
Traveled:
141nm/1:01
Distance/Time
To Go:
Arrived

Flight Plot

Page will automatically refresh every two minutes.


Map Options




Map Legend


Flown Route
Filed Route
Departure Airport
Arrival Airport
Navaid (VOR, NDB)
Fix

Horizontal Profiles

Position Reports

Time Latitude Longitude Heading Altitude Ground
Speed
14-Jul-19 15:23 35.812828 -115.326239 208 6514ft 129kts
14-Jul-19 15:24 35.781011 -115.346926 209 6505ft 130kts
14-Jul-19 15:25 35.748964 -115.367701 208 6518ft 129kts
14-Jul-19 15:25 35.722332 -115.384976 208 6518ft 128kts
14-Jul-19 15:27 35.685270 -115.408989 207 6507ft 129kts
14-Jul-19 15:28 35.653359 -115.429670 208 6512ft 129kts
14-Jul-19 15:28 35.626597 -115.446863 209 6517ft 130kts
14-Jul-19 15:30 35.589453 -115.470828 207 6517ft 128kts
14-Jul-19 15:31 35.557705 -115.491251 209 6510ft 128kts
14-Jul-19 15:31 35.531259 -115.508416 206 6511ft 128kts
14-Jul-19 15:32 35.503389 -115.534716 234 6508ft 128kts
14-Jul-19 15:34 35.480696 -115.577170 236 6526ft 128kts
14-Jul-19 15:34 35.464842 -115.607998 237 6515ft 128kts
14-Jul-19 15:35 35.445857 -115.645164 234 6510ft 129kts
14-Jul-19 15:36 35.426662 -115.682618 235 6519ft 128kts
14-Jul-19 15:37 35.407441 -115.720269 233 6517ft 129kts
14-Jul-19 15:38 35.388302 -115.757650 233 6512ft 129kts
14-Jul-19 15:39 35.369207 -115.794749 235 6515ft 128kts
14-Jul-19 15:40 35.349974 -115.832242 234 6510ft 130kts
14-Jul-19 15:41 35.330789 -115.869594 235 6513ft 129kts
14-Jul-19 15:42 35.311519 -115.907065 234 6511ft 129kts
14-Jul-19 15:43 35.292387 -115.944383 233 6515ft 130kts
14-Jul-19 15:44 35.273070 -115.981815 232 6512ft 131kts
14-Jul-19 15:45 35.253671 -116.019252 235 6513ft 128kts
14-Jul-19 15:46 35.234465 -116.056519 234 6512ft 129kts
14-Jul-19 15:47 35.214859 -116.094363 236 6513ft 134kts
14-Jul-19 15:48 35.194685 -116.133334 233 6555ft 133kts
14-Jul-19 15:49 35.174540 -116.172253 234 6560ft 136kts
14-Jul-19 15:50 35.154250 -116.211254 235 6557ft 135kts
14-Jul-19 15:51 35.133865 -116.250640 235 6560ft 137kts
14-Jul-19 15:52 35.113574 -116.289589 235 6560ft 135kts
14-Jul-19 15:53 35.093423 -116.328452 234 6557ft 135kts
14-Jul-19 15:54 35.073021 -116.367474 233 6558ft 136kts
14-Jul-19 15:55 35.052688 -116.406577 232 6558ft 136kts
14-Jul-19 15:56 35.032100 -116.445912 233 6551ft 137kts
14-Jul-19 15:57 35.011057 -116.486267 232 6542ft 144kts
14-Jul-19 15:58 34.989102 -116.528156 232 6534ft 148kts
14-Jul-19 15:59 34.966658 -116.570963 233 6530ft 151kts
14-Jul-19 16:00 34.946132 -116.615240 243 6524ft 146kts
14-Jul-19 16:01 34.926855 -116.658547 242 6524ft 145kts
14-Jul-19 16:02 34.907581 -116.701458 242 6524ft 145kts
14-Jul-19 16:03 34.888230 -116.744620 242 6522ft 145kts
14-Jul-19 16:04 34.868713 -116.787738 242 6523ft 145kts
14-Jul-19 16:05 34.849190 -116.831122 241 6515ft 146kts
14-Jul-19 16:06 34.829531 -116.874495 240 6504ft 146kts
14-Jul-19 16:07 34.809805 -116.917736 241 6510ft 145kts
14-Jul-19 16:08 34.790228 -116.960966 239 6516ft 146kts
14-Jul-19 16:09 34.770150 -117.005276 238 6535ft 149kts
14-Jul-19 16:10 34.750099 -117.049448 236 6555ft 148kts
14-Jul-19 16:11 34.730340 -117.092934 235 6568ft 143kts
14-Jul-19 16:12 34.711409 -117.134465 235 6607ft 136kts
14-Jul-19 16:13 34.692718 -117.175336 236 6570ft 139kts
14-Jul-19 16:14 34.674288 -117.215757 235 6645ft 136kts
14-Jul-19 16:15 34.657950 -117.257759 257 6279ft 136kts
14-Jul-19 16:16 34.654703 -117.300366 260 5981ft 122kts
14-Jul-19 16:17 34.664573 -117.340673 303 5586ft 126kts
14-Jul-19 16:18 34.681078 -117.374877 258 5352ft 98kts
14-Jul-19 16:19 34.688463 -117.367198 323 4924ft 124kts
14-Jul-19 16:20 34.692244 -117.370829 301 4018ft 132kts
14-Jul-19 16:21 34.696257 -117.370497 289 3758ft 126kts
14-Jul-19 16:22 34.674018 -117.385601 185 3811ft 102kts
14-Jul-19 16:23 34.647891 -117.387191 176 3360ft 100kts
14-Jul-19 16:24 34.624650 -117.386877 171 2942ft 61kts
14-Jul-19 16:25 34.614867 -117.386725 180 2821ft 22kts
14-Jul-19 16:26 34.610841 -117.384710 96 2828ft 10kts
14-Jul-19 16:27 34.606450 -117.384144 178 2835ft 23kts
14-Jul-19 16:28 34.599048 -117.384070 179 2848ft 27kts
14-Jul-19 16:29 34.594769 -117.383425 161 2856ft 11kts
14-Jul-19 16:30 34.591047 -117.379352 142 2864ft 24kts
14-Jul-19 16:31 34.589585 -117.375051 261 2866ft 0kts
14-Jul-19 16:32 34.589585 -117.375051 262 2866ft 0kts
14-Jul-19 16:33 34.589585 -117.375051 262 2866ft 0kts
14-Jul-19 16:34 34.589585 -117.375051 262 2866ft 0kts

Navigation Log

Ident Type
Flight plan parsing failed, navigation log unavailable